Terminal Aerodrome Forecast
Issued by NWS Wilmington, NC

Home | Current Version | Previous Version | Text Only | Print | Product List | Glossary On
Versions: 1 2 3 4 5 6 7 8 9 10 11 12 13 14 15
304
FTUS42 KILM 141121
TAFMYR
TAF
KMYR 141121Z 1412/1512 25012KT P6SM SKC WS010/27035KT
     FM141400 28012KT P6SM SCT200
     FM141900 22009KT P6SM SKC
     FM150000 22004KT P6SM FEW120 SCT250=

USA.gov is the U.S. government's official web portal to all federal, state and local government web resources and services.